Penn Yan, NY

4:19 AM EST on January 22, 2017 (GMT -0500)
LaBelleVie 208 Main Street | | Change Station
Active Advisory: Small Craft Advisory

Elev 743 ft 42.66 °N, 77.06 °W | Updated 155 days ago

Clear
Clear
93.7 °F
Feels Like 93.7 °F
N
0.0
Wind Variable Wind from East
Gusts 0.0 mph

Today
High -- | Low -- °F
--% Chance of Precip.
Yesterday
High -- | Low -- °F
Precip. -- in
Pressure 29.69 in
Visibility 10.0 miles
Clouds Clear
Dew Point 37.4 °F
Humidity 14%
Rainfall in
Snow Depth Not available.
7:31 AM 5:09 PM
Waning Crescent, 28% visible
METAR KPEO 220853Z AUTO 22006KT 10SM CLR 07/05 A2968 RMK AO2 SLP052 T00720050 57003
Pressure 29.69 in
Visibility 10.0 miles
Clouds Clear
Dew Point 37.4 °F
Humidity 14%
Rainfall in
Snow Depth Not available.
7:31 AM 5:09 PM
Waning Crescent, 28% visible
METAR KPEO 220853Z AUTO 22006KT 10SM CLR 07/05 A2968 RMK AO2 SLP052 T00720050 57003

Get Your Daily Forecast Email!

Thanks for signing up!

Be on the lookout for a verification email in your inbox.

You'll start receiving the daily forecast at 8 AM.

×

10-Day Weather Forecast

Almanac

Astronomy

Jan. 22, 2017 Rise Set
Actual Time
Civil Twilight
Nautical Twilight
Astronomical Twilight
Moon
Length of Visible Light
Length of Day
Tomorrow will be .
, % of the Moon is Illuminated

Today's Extremes

State Highs State Lows

Community

WunderPhotos

Upload Photos

1,962,540 photos uploaded!

WunderBlog® & News

Nearby

Air Quality

  Air Quality AQ Index Pollutant
Not available.

Snow Depth

Station Depth Elevation

Earthquake Activity

City Distance Mag. Time & Date
Minimum magnitude displayed is 2.5.

Coastal Water Temperatures

Place Temperature

Stations

Nearby Weather Stations

Station Location Temp. Windchill Dew Point Humidity Wind Precip. Elev Updated Type
                   

Watches & Warnings

Small Craft Advisory
Issued: 3:32 AM EST Jan. 22, 2017 – National Weather Service

... Small Craft Advisory in effect from 7 PM this evening to 1 PM
EST Tuesday...

The National Weather Service in Buffalo has issued a Small Craft
Advisory... which is in effect from 7 PM this evening to 1 PM EST
Tuesday.

* Winds... northeast 20 to 25 knots.

* Waves... 4 to 7 feet.

Precautionary/preparedness actions...

A Small Craft Advisory means that wind speeds of 18 to 33 knots
and/or waves averaging 4 feet or more are expected to produce
hazardous wave conditions to small craft. Inexperienced
mariners... especially those operating smaller vessels... should
avoid navigating in these conditions.



Church